Nearby METAR Reports

 

KMQS - Coatesville, Pennsylvania, USA
Distance from station: NW 12mi, 19km
Updated: Tue, 23-Jul-2019 4:55am EDT
Light rain, Partly cloudy
Light rain, Partly cloudy
 Wind from NNW
Wind: NNW 9 mph , 15 km/h
Temperature: 64°F , 18°C
Dew Point: 64°F , 18°C
Humidity: 100%
Barometer: 29.79 inHg , 1008.8 hPa
Summary: Light rain
Clouds: Partly cloudy
Visibility: 9 miles , 14 km
Cloud details: Partly cloudy 2700 ft
Partly cloudy 3200 ft
2019/07/23 08:55 KMQS 230855Z AUTO 33008KT 9SM -RA SCT027 SCT032 18/18 A2979 RMK AO2 P0019
KOQN - West Chester, Pennsylvania, USA
Distance from station: NE 13mi, 21km
Updated: Tue, 23-Jul-2019 4:55am EDT
Rain, Overcast
Rain, Overcast
 Wind from NW
Wind: NW 9 mph , 15 km/h
Temperature: 66°F , 19°C
Dew Point: 63°F , 17°C
Humidity: 88%
Barometer: 29.76 inHg , 1007.8 hPa
Summary: Rain
Clouds: Overcast
Visibility: 4 miles , 6 km
Cloud details: Mostly cloudy 1000 ft
Mostly cloudy 1600 ft
Overcast 2600 ft
2019/07/23 08:55 KOQN 230855Z AUTO 32008KT 4SM RA BKN010 BKN016 OVC026 19/17 A2976 RMK AO2 P0051
 
KILG - Wilmington, Delaware, USA
Distance from station: SSE 14mi, 23km
Updated: Tue, 23-Jul-2019 5:00am EDT
Heavy rain, Mist, Overcast
Heavy rain, Mist, Overcast
 Wind from NW
Wind: NW 17 mph , 28 km/h, Gust: 25 mph , 41 km/h
Temperature: 70°F , 21°C
Dew Point: 68°F , 20°C
Humidity: 94%
Barometer: 29.74 inHg , 1007.1 hPa
Summary: Heavy rain, Mist
Clouds: Overcast
Visibility: 5 miles , 8 km
Cloud details: Partly cloudy 600 ft
Mostly cloudy 3800 ft
Overcast 5500 ft
2019/07/23 09:00 KILG 230900Z AUTO 32015G22KT 5SM +RA BR SCT006 BKN038 OVC055 21/20 A2974 RMK AO2 P0003 T02060200
KPHL - Philadelphia, Pennsylvania, USA
Distance from station: E 27mi, 43km
Updated: Tue, 23-Jul-2019 5:02am EDT
Heavy rain, Mist, Overcast
Heavy rain, Mist, Overcast
 Wind from N
Wind: N 15 mph , 24 km/h
Temperature: 70°F , 21°C
Dew Point: 66°F , 19°C
Humidity: 88%
Barometer: 29.72 inHg , 1006.4 hPa
Summary: Heavy rain, Mist
Clouds: Overcast
Visibility: 4 miles , 6 km
Cloud details: Partly cloudy 600 ft
Overcast 2100 ft
2019/07/23 09:02 KPHL 230902Z 35013KT 4SM +RA BR SCT006 OVC021 21/19 A2972 RMK AO2 P0002 T02110194 $
 
KPTW - Pottstown, Pennsylvania, USA
Distance from station: NNE 29mi, 47km
Updated: Tue, 23-Jul-2019 4:54am EDT
Light rain, Mist, Mostly cloudy
Light rain, Mist, Mostly cloudy
 Wind from NW
Wind: NW 6 mph , 9 km/h
Temperature: 64°F , 18°C
Dew Point: 64°F , 18°C
Humidity: 100%
Barometer: 29.78 inHg , 1008.5 hPa
Summary: Light rain, Mist
Clouds: Mostly cloudy
Visibility: 5 miles , 8 km
Cloud details: Partly cloudy 5500 ft
Partly cloudy 7000 ft
Mostly cloudy 11000 ft
2019/07/23 08:54 KPTW 230854Z AUTO 31005KT 5SM -RA BR SCT055 SCT070 BKN110 18/18 A2978 RMK AO2 SLP078 P0026 60071 T01830183 55001 $
KLOM - Philly Wings F, Pennsylvania, USA
Distance from station: NE 32mi, 52km
Updated: Tue, 23-Jul-2019 4:55am EDT
Rain, Mist, Overcast
Rain, Mist, Overcast
 Wind from NNW
Wind: NNW 6 mph , 9 km/h
Temperature: 68°F , 20°C
Dew Point: 66°F , 19°C
Humidity: 94%
Barometer: 29.74 inHg , 1007.1 hPa
Summary: Rain, Mist
Clouds: Overcast
Visibility: 5 miles , 8 km
Cloud details: Mostly cloudy 600 ft
Mostly cloudy 1000 ft
Overcast 2800 ft
2019/07/23 08:55 KLOM 230855Z AUTO 33005KT 5SM RA BR BKN006 BKN010 OVC028 20/19 A2974 RMK AO2 P0018 T01960192 60027
 
KAPG - Aberdeen/Phillip, Maryland, USA
Distance from station: SW 34mi, 55km
Updated: Mon, 22-Jul-2019 7:50pm EDT
NOT Current
Overcast
Overcast
 Wind from S
Wind: S 6 mph , 9 km/h
Temperature: 75°F , 24°C
Dew Point: 73°F , 23°C
Humidity: 94%
Barometer: 29.77 inHg , 1008.1 hPa
Clouds: Overcast
Visibility: 7 miles , 11 km
Cloud details: Mostly cloudy 6000 ft
Overcast 9000 ft
2019/07/22 23:50 KAPG 222350Z 19005KT 7SM BKN060 OVC090 24/23 A2977 RMK SLP084 50008
KLNS - Lancaster, Pennsylvania, USA
Distance from station: WNW 35mi, 57km
Updated: Tue, 23-Jul-2019 4:53am EDT
Mostly cloudy
Mostly cloudy
 Wind from W
Wind: W 8 mph , 13 km/h
Temperature: 68°F , 20°C
Dew Point: 66°F , 19°C
Humidity: 94%
Barometer: 29.80 inHg , 1009.1 hPa
Clouds: Mostly cloudy
Visibility: 10 miles , 16 km
Cloud details: Partly cloudy 2700 ft
Mostly cloudy 3500 ft
2019/07/23 08:53 KLNS 230853Z AUTO 28007KT 10SM SCT027 BKN035 20/19 A2980 RMK AO2 RAE27 SLP087 P0001 60038 T02000189 53005
 
KRDG - Reading, Pennsylvania, USA
Distance from station: NNW 38mi, 62km
Updated: Tue, 23-Jul-2019 5:06am EDT
Overcast
Overcast
 Wind from WNW
Wind: WNW 5 mph , 7 km/h
Temperature: 68°F , 20°C
Dew Point: 66°F , 19°C
Humidity: 94%
Barometer: 29.77 inHg , 1008.1 hPa
Clouds: Overcast
Visibility: 10 miles , 16 km
Cloud details: Mostly cloudy 2000 ft
Overcast 4000 ft
2019/07/23 09:06 KRDG 230906Z AUTO 29004KT 10SM BKN020 OVC040 20/19 A2977 RMK AO2 T02000194
KPNE - Philadelphia/Ne, Pennsylvania, USA
Distance from station: ENE 42mi, 67km
Updated: Tue, 23-Jul-2019 4:54am EDT
Light rain, Overcast
Light rain, Overcast
 Wind from NNW
Wind: NNW 12 mph , 19 km/h
Temperature: 73°F , 23°C
Dew Point: 70°F , 21°C
Humidity: 89%
Barometer: 29.72 inHg , 1006.4 hPa
Summary: Light rain
Clouds: Overcast
Visibility: 8 miles , 13 km
Cloud details: Mostly cloudy 800 ft
Overcast 2700 ft
2019/07/23 08:54 KPNE 230854Z AUTO 33010KT 8SM -RA BKN008 OVC027 23/21 A2972 RMK AO2 RAB51 CIG 006V011 SLP064 P0000 60004 T02280211 55010 $
 
KCKZ - Perkasie, Pennsylvania, USA
Distance from station: NNE 45mi, 72km
Updated: Tue, 23-Jul-2019 4:55am EDT
Rain, Overcast
Rain, Overcast
 Wind from N
Wind: N 5 mph , 7 km/h
Temperature: 66°F , 19°C
Dew Point: 66°F , 19°C
Humidity: 100%
Barometer: 29.76 inHg , 1007.8 hPa
Summary: Rain
Clouds: Overcast
Visibility: 10 miles , 16 km
Cloud details: Overcast 600 ft
2019/07/23 08:55 KCKZ 230855Z AUTO 36004KT 10SM RA OVC006 19/19 A2976 RMK AO2 P0017
KUKT - Quakertown Arp, Pennsylvania, USA
Distance from station: NNE 45mi, 73km
Updated: Tue, 23-Jul-2019 4:55am EDT
Mist, Overcast
Mist, Overcast
 Wind from varies
Wind: varies 6 mph , 9 km/h
Temperature: 66°F , 19°C
Dew Point: 66°F , 19°C
Humidity: 100%
Barometer: 29.76 inHg , 1007.8 hPa
Summary: Mist
Clouds: Overcast
Visibility: 6 miles , 10 km
Cloud details: Few Clouds 200 ft
Few Clouds 700 ft
Overcast 3800 ft
2019/07/23 08:55 KUKT 230855Z AUTO VRB05KT 6SM BR FEW002 FEW007 OVC038 19/19 A2976 RMK A01 P0027
 
KDYL - Doylestown, Pennsylvania, USA
Distance from station: NE 47mi, 76km
Updated: Tue, 23-Jul-2019 5:00am EDT
Heavy rain, Mist, Overcast
Heavy rain, Mist, Overcast
 Wind from N
Wind: N 9 mph , 15 km/h
Temperature: 66°F , 19°C
Dew Point: 64°F , 18°C
Humidity: 94%
Barometer: 29.74 inHg , 1007.1 hPa
Summary: Heavy rain, Mist
Clouds: Overcast
Visibility: 5 miles , 8 km
Cloud details: Few Clouds 600 ft
Mostly cloudy 1500 ft
Overcast 2300 ft
2019/07/23 09:00 KDYL 230900Z AUTO 35008KT 5SM +RA BR FEW006 BKN015 OVC023 19/18 A2974 RMK AO2 P0003 T01940183
KMIV - Millville, New Jersey, USA
Distance from station: SE 48mi, 77km
Updated: Tue, 23-Jul-2019 4:54am EDT
Overcast
Overcast
 Wind from SW
Wind: SW 7 mph , 11 km/h
Temperature: 75°F , 24°C
Dew Point: 73°F , 23°C
Humidity: 94%
Barometer: 29.70 inHg , 1005.8 hPa
Clouds: Overcast
Visibility: 10 miles , 16 km
Cloud details: Partly cloudy 1800 ft
Mostly cloudy 2600 ft
Overcast 3100 ft
2019/07/23 08:54 KMIV 230854Z AUTO 22006KT 10SM SCT018 BKN026 OVC031 24/23 A2970 RMK AO2 SLP056 60032 T02390228 58011 $
 
KVAY - Mount Holly, New Jersey, USA
Distance from station: E 48mi, 78km
Updated: Mon, 22-Jul-2019 4:54pm EDT
NOT Current
Partly cloudy
Partly cloudy
 Wind from SW
Wind: SW 8 mph , 13 km/h
Temperature: 91°F , 33°C
Heat Index: 100°F , 38°C
Dew Point: 73°F , 23°C
Humidity: 56%
Barometer: 29.68 inHg , 1005.1 hPa
Clouds: Partly cloudy
Visibility: 10 miles , 16 km
Cloud details: Few Clouds 5500 ft
Partly cloudy 7500 ft
2019/07/22 20:54 KVAY 222054Z AUTO 22007KT 10SM FEW055 SCT075 33/23 A2968 RMK AO2 LTG DSNT W SLP050 T03330233 56028